Time;durP1;ratioP1;P1;durP2;ratioP2;P2;SDS_P1;SDS_P2;PMS_P1;PMS_P2;Temp;Humidity;BMP_temperature;BMP_pressure;BME280_temperature;BME280_humidity;BME280_pressure;Samples;Min_cycle;Max_cycle;Signal;HPM_P1;HPM_P2
2022/04/18 00:01:44;;;;;;;3.22;1.70;;;19.70;58.30;;;;;;5016382;28;20040;-64
2022/04/18 00:04:10;;;;;;;2.83;1.60;;;19.70;58.30;;;;;;5013998;28;20029;-64
2022/04/18 00:06:36;;;;;;;4.65;1.90;;;19.70;58.30;;;;;;5020592;28;20040;-64
2022/04/18 00:09:03;;;;;;;3.22;1.70;;;19.70;58.30;;;;;;5027096;28;20048;-64
2022/04/18 00:11:29;;;;;;;4.03;1.80;;;19.70;58.30;;;;;;5016673;28;20520;-64
2022/04/18 00:13:54;;;;;;;4.13;1.92;;;19.70;58.30;;;;;;5018412;28;20022;-64
2022/04/18 00:16:20;;;;;;;3.70;1.90;;;19.70;58.30;;;;;;5016929;28;20030;-64
2022/04/18 00:18:46;;;;;;;3.65;1.90;;;19.60;58.30;;;;;;5022505;28;20040;-64
2022/04/18 00:21:11;;;;;;;3.28;1.73;;;19.60;58.30;;;;;;5017198;28;20076;-64
2022/04/18 00:23:37;;;;;;;4.45;2.15;;;19.60;58.30;;;;;;5016370;28;20111;-64
2022/04/18 00:26:03;;;;;;;3.97;1.88;;;19.60;58.30;;;;;;5018319;28;20080;-64
2022/04/18 00:28:28;;;;;;;2.92;1.70;;;19.60;58.30;;;;;;5020637;28;20088;-64
2022/04/18 00:30:54;;;;;;;2.45;1.63;;;19.60;58.30;;;;;;5017507;28;20072;-64
2022/04/18 00:33:20;;;;;;;4.38;1.70;;;19.60;58.30;;;;;;5029280;28;20050;-64
2022/04/18 00:35:45;;;;;;;2.67;1.60;;;19.60;58.40;;;;;;5019362;28;20112;-64
2022/04/18 00:38:11;;;;;;;3.97;1.60;;;19.60;58.40;;;;;;5022382;28;20123;-64
2022/04/18 00:40:37;;;;;;;6.85;2.10;;;19.50;58.30;;;;;;5018893;28;20509;-64
2022/04/18 00:43:03;;;;;;;3.58;1.77;;;19.50;58.30;;;;;;5026286;28;20079;-63
2022/04/18 00:45:29;;;;;;;4.50;1.85;;;19.50;58.30;;;;;;5029486;28;20104;-64
2022/04/18 00:47:55;;;;;;;3.22;1.80;;;19.50;58.30;;;;;;5021471;28;20162;-64
2022/04/18 00:50:21;;;;;;;4.13;1.90;;;19.50;58.30;;;;;;5019234;28;20030;-64
2022/04/18 00:52:47;;;;;;;3.67;1.73;;;19.50;58.40;;;;;;5022215;28;20633;-64
2022/04/18 00:55:12;;;;;;;3.20;1.70;;;19.50;58.30;;;;;;5020307;28;20352;-64
2022/04/18 00:57:38;;;;;;;2.40;1.60;;;19.50;58.40;;;;;;5027123;28;20280;-63
2022/04/18 01:00:04;;;;;;;2.47;1.63;;;19.50;58.40;;;;;;5051950;28;20037;-64
2022/04/18 01:02:30;;;;;;;3.15;1.67;;;19.50;58.40;;;;;;5019927;28;20041;-64
2022/04/18 01:04:55;;;;;;;3.08;1.70;;;19.50;58.40;;;;;;5020028;28;20445;-64
2022/04/18 01:07:21;;;;;;;4.38;1.80;;;19.40;58.40;;;;;;5019608;28;20033;-64
2022/04/18 01:09:47;;;;;;;3.38;1.67;;;19.40;58.40;;;;;;5023253;28;20405;-64
2022/04/18 01:12:12;;;;;;;3.42;1.50;;;19.40;58.40;;;;;;5021980;28;20030;-64
2022/04/18 01:14:38;;;;;;;4.47;1.48;;;19.40;58.40;;;;;;5026104;28;20472;-64
2022/04/18 01:17:04;;;;;;;4.28;1.60;;;19.40;58.40;;;;;;5027315;28;20032;-63
2022/04/18 01:19:30;;;;;;;3.58;1.73;;;19.40;58.40;;;;;;5019713;28;20051;-64
2022/04/18 01:21:55;;;;;;;3.38;1.70;;;19.40;58.40;;;;;;5018833;28;20402;-64
2022/04/18 01:29:49;;;;;;;3.80;1.60;;;19.30;59.30;;;;;;5021643;28;20388;-64
2022/04/18 01:32:15;;;;;;;2.65;1.52;;;19.40;58.40;;;;;;5020987;28;20029;-63
2022/04/18 01:34:41;;;;;;;3.22;1.80;;;19.30;59.30;;;;;;5024350;28;20108;-64
2022/04/18 01:37:06;;;;;;;4.05;1.60;;;19.30;58.30;;;;;;5022195;28;20065;-64
2022/04/18 01:39:32;;;;;;;4.28;1.65;;;19.30;58.40;;;;;;5016540;28;20634;-64
2022/04/18 01:41:57;;;;;;;3.40;1.67;;;19.30;58.40;;;;;;5015553;28;20033;-64
2022/04/18 01:44:23;;;;;;;4.28;1.65;;;19.30;58.40;;;;;;5022174;28;20030;-64
2022/04/18 01:46:50;;;;;;;2.92;1.60;;;19.30;58.30;;;;;;5024225;28;20038;-64
2022/04/18 01:49:16;;;;;;;4.05;1.60;;;19.30;58.30;;;;;;5026964;28;20453;-64
2022/04/18 01:51:41;;;;;;;2.92;1.58;;;19.30;58.40;;;;;;5017968;28;20057;-64
2022/04/18 01:54:07;;;;;;;4.43;1.60;;;19.30;58.50;;;;;;5016370;28;20513;-64
2022/04/18 01:56:33;;;;;;;2.40;1.60;;;19.30;58.40;;;;;;5022720;28;20577;-64
2022/04/18 01:58:59;;;;;;;3.47;1.55;;;19.30;58.40;;;;;;5020749;28;20112;-64
2022/04/18 02:01:24;;;;;;;3.90;1.60;;;19.30;58.50;;;;;;5015689;28;20185;-64
2022/04/18 02:03:50;;;;;;;3.92;1.42;;;19.20;58.40;;;;;;5025404;28;20568;-64
2022/04/18 02:06:16;;;;;;;3.45;1.63;;;19.20;58.40;;;;;;5030037;28;20444;-64
2022/04/18 02:08:41;;;;;;;3.20;1.52;;;19.20;58.50;;;;;;5024291;28;20517;-64
2022/04/18 02:11:07;;;;;;;4.20;1.63;;;19.20;58.50;;;;;;5019506;28;20401;-64
2022/04/18 02:13:33;;;;;;;2.55;1.60;;;19.20;58.40;;;;;;5016224;28;20489;-64
2022/04/18 02:15:59;;;;;;;3.50;1.60;;;19.20;58.50;;;;;;5017554;28;20394;-64
2022/04/18 02:18:24;;;;;;;3.75;1.70;;;19.20;58.40;;;;;;5027611;28;20207;-64
2022/04/18 02:20:50;;;;;;;4.13;1.67;;;19.20;58.50;;;;;;5022199;28;20199;-64
2022/04/18 02:23:16;;;;;;;4.75;1.80;;;19.20;58.50;;;;;;5018148;28;20033;-64
2022/04/18 02:25:41;;;;;;;3.88;1.40;;;19.20;58.50;;;;;;5017540;28;20030;-64
2022/04/18 02:28:07;;;;;;;4.38;1.50;;;19.20;58.50;;;;;;5029759;28;20021;-65
2022/04/18 02:30:33;;;;;;;3.63;1.70;;;19.20;58.50;;;;;;5023343;28;20037;-64
2022/04/18 02:32:59;;;;;;;3.17;1.40;;;19.20;59.50;;;;;;5026935;28;20751;-64
2022/04/18 02:35:25;;;;;;;3.50;1.50;;;19.10;58.50;;;;;;5022619;28;20112;-64
2022/04/18 02:37:51;;;;;;;5.25;1.42;;;19.10;58.50;;;;;;5016071;28;20184;-64
2022/04/18 02:40:16;;;;;;;3.03;1.58;;;19.10;58.50;;;;;;5018336;28;20105;-64
2022/04/18 02:42:42;;;;;;;2.97;1.58;;;19.10;58.60;;;;;;5018984;28;20109;-64
2022/04/18 02:45:10;;;;;;;3.97;1.50;;;19.10;58.60;;;;;;5020086;28;20064;-64
2022/04/18 02:47:36;;;;;;;2.30;1.40;;;19.10;58.60;;;;;;5017653;28;20528;-64
2022/04/18 02:50:01;;;;;;;5.30;1.80;;;19.10;58.50;;;;;;5013956;28;20017;-64
2022/04/18 02:52:27;;;;;;;4.97;1.65;;;19.10;58.50;;;;;;5016681;28;20563;-64
2022/04/18 02:54:52;;;;;;;4.70;1.60;;;19.10;58.60;;;;;;5016682;28;20025;-64
2022/04/18 02:57:18;;;;;;;4.03;1.50;;;19.00;58.50;;;;;;5017213;28;20034;-64
2022/04/18 02:59:44;;;;;;;4.28;1.58;;;19.00;58.50;;;;;;5019757;28;20040;-64
2022/04/18 03:02:09;;;;;;;4.40;1.50;;;19.00;58.50;;;;;;5012399;28;20036;-64
2022/04/18 03:04:35;;;;;;;3.72;1.30;;;19.00;58.60;;;;;;5018403;28;20087;-64
2022/04/18 03:07:01;;;;;;;4.25;1.58;;;19.00;58.60;;;;;;5023928;28;20028;-64
2022/04/18 03:09:28;;;;;;;3.47;1.60;;;19.00;58.60;;;;;;5022989;28;20413;-64
2022/04/18 03:11:54;;;;;;;3.28;1.50;;;19.00;58.60;;;;;;5022014;28;20029;-64
2022/04/18 03:14:19;;;;;;;5.55;1.50;;;19.00;58.60;;;;;;5016169;28;20410;-64
2022/04/18 03:16:47;;;;;;;4.57;1.65;;;19.00;58.60;;;;;;5019409;28;20034;-64
2022/04/18 03:19:14;;;;;;;6.13;1.63;;;19.00;58.70;;;;;;5015291;28;20117;-64
2022/04/18 03:21:40;;;;;;;4.00;1.50;;;19.00;58.60;;;;;;5022744;28;20535;-64
2022/04/18 03:24:07;;;;;;;3.40;1.33;;;19.00;58.60;;;;;;5019572;28;20095;-64
2022/04/18 03:26:33;;;;;;;3.88;1.42;;;19.00;58.70;;;;;;5018745;28;20025;-64
2022/04/18 03:28:58;;;;;;;2.78;1.20;;;18.90;58.60;;;;;;5012610;28;20059;-64
2022/04/18 03:31:24;;;;;;;3.78;1.35;;;18.90;58.70;;;;;;5013756;28;20057;-64
2022/04/18 03:33:50;;;;;;;3.05;1.30;;;18.90;58.60;;;;;;5017450;28;20034;-64
2022/04/18 03:41:52;;;;;;;3.22;1.25;;;18.90;58.70;;;;;;5019824;28;20469;-64
2022/04/18 03:44:18;;;;;;;3.35;1.50;;;18.90;58.60;;;;;;5021470;28;20030;-64
2022/04/18 03:46:44;;;;;;;5.35;1.40;;;18.90;58.70;;;;;;5019106;28;20065;-65
2022/04/18 03:49:09;;;;;;;4.32;1.50;;;18.90;58.70;;;;;;5016735;28;20041;-64
2022/04/18 03:51:36;;;;;;;3.50;1.20;;;18.90;58.70;;;;;;5013098;28;20033;-63
2022/04/18 03:54:01;;;;;;;2.58;1.30;;;18.90;58.70;;;;;;5017654;28;20029;-64
2022/04/18 03:56:27;;;;;;;4.00;1.35;;;18.90;58.60;;;;;;5015467;28;20468;-64
2022/04/18 03:58:53;;;;;;;5.45;1.60;;;18.80;58.60;;;;;;5015955;28;20037;-64
2022/04/18 04:01:18;;;;;;;3.08;1.40;;;18.90;58.70;;;;;;5011628;28;20021;-64
2022/04/18 04:03:44;;;;;;;4.10;1.40;;;18.80;58.60;;;;;;5014449;28;20120;-64
2022/04/18 04:06:09;;;;;;;3.90;1.30;;;18.80;58.60;;;;;;5019041;28;20017;-64
2022/04/18 04:08:35;;;;;;;3.03;1.15;;;18.80;58.60;;;;;;5014951;28;20116;-64
2022/04/18 04:11:01;;;;;;;4.55;1.33;;;18.80;58.70;;;;;;5011071;28;20029;-64
2022/04/18 04:13:26;;;;;;;3.13;1.40;;;18.80;58.60;;;;;;5026855;28;20026;-64
2022/04/18 04:15:52;;;;;;;3.55;1.50;;;18.80;58.60;;;;;;5005008;28;20030;-64
2022/04/18 04:18:18;;;;;;;6.20;1.60;;;18.80;58.60;;;;;;4997757;28;20111;-63
2022/04/18 04:20:43;;;;;;;3.45;1.20;;;18.80;58.70;;;;;;4996889;28;20030;-64
2022/04/18 04:23:09;;;;;;;3.17;1.17;;;18.80;58.60;;;;;;4994968;28;20028;-64
2022/04/18 04:25:35;;;;;;;4.50;1.40;;;18.80;58.70;;;;;;4991647;28;20116;-63
2022/04/18 04:28:00;;;;;;;2.83;1.10;;;18.80;58.60;;;;;;4994837;28;20034;-64
2022/04/18 04:30:26;;;;;;;2.50;1.20;;;18.80;58.70;;;;;;4997215;28;20414;-64
2022/04/18 04:32:52;;;;;;;3.22;1.30;;;18.80;58.60;;;;;;4998673;28;20030;-64
2022/04/18 04:35:18;;;;;;;2.92;1.20;;;18.70;58.60;;;;;;4997524;28;20037;-64
2022/04/18 04:37:43;;;;;;;4.47;1.50;;;18.70;58.60;;;;;;4998873;28;20034;-64
2022/04/18 04:40:11;;;;;;;3.47;1.30;;;18.70;58.70;;;;;;5003247;28;20034;-64
2022/04/18 04:42:38;;;;;;;2.83;1.20;;;18.70;58.70;;;;;;4997451;28;20014;-64
2022/04/18 04:45:04;;;;;;;4.00;1.48;;;18.70;58.60;;;;;;5001583;28;20030;-64
2022/04/18 04:47:29;;;;;;;4.32;1.40;;;18.70;58.70;;;;;;5016641;28;20046;-64
2022/04/18 04:49:55;;;;;;;3.40;1.33;;;18.70;58.60;;;;;;5018096;28;20029;-64
2022/04/18 04:52:21;;;;;;;4.45;1.20;;;18.70;58.60;;;;;;5019356;28;20029;-64
2022/04/18 04:54:46;;;;;;;2.70;1.20;;;18.70;58.70;;;;;;5023880;28;20500;-64
2022/04/18 04:57:12;;;;;;;4.95;1.38;;;18.70;58.60;;;;;;5020057;28;20554;-64
2022/04/18 04:59:38;;;;;;;2.90;1.30;;;18.70;58.60;;;;;;5018770;28;20456;-64
2022/04/18 05:02:05;;;;;;;2.03;1.00;;;18.70;58.70;;;;;;5015137;28;20029;-64
2022/04/18 05:04:31;;;;;;;2.72;1.05;;;18.70;58.70;;;;;;5026006;28;20057;-64
2022/04/18 05:06:56;;;;;;;3.55;1.17;;;18.60;58.60;;;;;;5013126;28;20062;-64
2022/04/18 05:09:22;;;;;;;3.92;1.40;;;18.60;58.50;;;;;;5017296;28;20049;-64
2022/04/18 05:11:48;;;;;;;4.28;1.20;;;18.60;58.50;;;;;;5020039;28;20021;-64
2022/04/18 05:14:15;;;;;;;2.67;1.20;;;18.60;58.50;;;;;;5015717;28;20052;-64
2022/04/18 05:16:40;;;;;;;3.55;1.10;;;18.60;58.50;;;;;;5013858;28;20041;-64
2022/04/18 05:19:06;;;;;;;3.78;1.40;;;18.60;58.50;;;;;;5028789;28;20045;-64
2022/04/18 05:21:32;;;;;;;2.47;1.00;;;18.60;58.50;;;;;;5023100;28;20038;-64
2022/04/18 05:23:58;;;;;;;2.58;1.10;;;18.60;58.60;;;;;;5028405;28;20420;-64
2022/04/18 05:26:23;;;;;;;4.85;0.90;;;18.60;58.60;;;;;;5021889;28;20033;-64
2022/04/18 05:28:49;;;;;;;2.65;1.15;;;18.60;58.60;;;;;;5019821;28;20033;-64
2022/04/18 05:31:17;;;;;;;2.67;1.30;;;18.60;58.60;;;;;;5018884;28;20063;-64
2022/04/18 05:33:43;;;;;;;2.53;1.10;;;18.60;58.60;;;;;;5022300;28;20065;-64
2022/04/18 05:36:09;;;;;;;3.55;1.20;;;18.50;58.50;;;;;;5020802;28;20022;-64
2022/04/18 05:38:35;;;;;;;1.73;0.90;;;18.50;58.60;;;;;;5023522;28;20044;-64
2022/04/18 05:41:01;;;;;;;2.40;1.20;;;18.50;58.50;;;;;;5015354;28;20397;-64
2022/04/18 05:43:27;;;;;;;2.75;1.10;;;18.50;58.60;;;;;;5017360;28;20034;-64
2022/04/18 05:45:53;;;;;;;4.95;1.20;;;18.50;58.50;;;;;;5020495;28;20034;-64
2022/04/18 05:48:19;;;;;;;3.70;1.02;;;18.50;58.50;;;;;;5030187;28;20078;-64
2022/04/18 05:50:47;;;;;;;4.10;1.10;;;18.50;58.60;;;;;;5024288;28;20021;-64
2022/04/18 05:53:13;;;;;;;1.95;1.10;;;18.50;58.50;;;;;;5025369;28;20025;-64
2022/04/18 05:55:39;;;;;;;3.92;1.20;;;18.50;58.60;;;;;;5013295;28;20482;-64
2022/04/18 05:58:04;;;;;;;2.85;1.15;;;18.50;58.30;;;;;;5022492;28;20048;-63
2022/04/18 06:00:32;;;;;;;2.35;1.05;;;18.50;58.70;;;;;;5023462;28;20112;-63
2022/04/18 06:02:58;;;;;;;3.78;1.10;;;18.50;58.50;;;;;;5025929;28;20060;-63
2022/04/18 06:05:24;;;;;;;3.63;1.00;;;18.50;58.50;;;;;;5027028;28;20028;-64
2022/04/18 06:07:50;;;;;;;3.17;0.95;;;18.50;58.50;;;;;;5015357;28;20025;-63
2022/04/18 06:10:16;;;;;;;3.28;1.02;;;18.50;58.50;;;;;;5014670;28;20065;-63
2022/04/18 06:12:41;;;;;;;3.20;1.05;;;18.50;58.50;;;;;;5021871;28;20087;-63
2022/04/18 06:15:07;;;;;;;3.17;1.02;;;18.50;58.50;;;;;;5027027;28;20030;-63
2022/04/18 06:17:33;;;;;;;3.15;1.00;;;18.50;58.50;;;;;;5021838;28;20322;-64
2022/04/18 06:19:59;;;;;;;3.15;1.08;;;18.50;58.50;;;;;;5013840;28;20403;-65
2022/04/18 06:22:24;;;;;;;2.72;1.10;;;18.40;58.40;;;;;;5026976;28;20116;-63
2022/04/18 06:24:50;;;;;;;2.88;0.77;;;18.40;58.50;;;;;;5019064;28;20060;-63
2022/04/18 06:27:15;;;;;;;2.20;1.00;;;18.40;58.50;;;;;;5020425;28;20180;-64
2022/04/18 06:29:41;;;;;;;2.13;0.80;;;18.40;58.50;;;;;;5022077;28;20502;-64
2022/04/18 06:32:07;;;;;;;2.40;1.00;;;18.40;58.50;;;;;;5015899;28;20540;-64
2022/04/18 06:34:33;;;;;;;2.60;0.95;;;18.40;58.60;;;;;;5014815;28;20080;-64
2022/04/18 06:36:58;;;;;;;4.55;1.08;;;18.40;58.40;;;;;;5020443;28;20065;-63
2022/04/18 06:39:24;;;;;;;2.58;1.08;;;18.40;58.40;;;;;;5025851;28;20149;-63
2022/04/18 06:41:51;;;;;;;4.13;0.90;;;18.40;58.40;;;;;;5015978;28;20025;-63
2022/04/18 06:44:16;;;;;;;3.63;1.13;;;18.40;58.30;;;;;;5018639;28;20765;-63
2022/04/18 06:46:43;;;;;;;3.65;1.08;;;18.40;58.50;;;;;;5017499;28;20128;-64
2022/04/18 06:49:08;;;;;;;1.50;0.80;;;18.40;58.30;;;;;;5019241;28;20049;-63
2022/04/18 06:51:34;;;;;;;3.90;1.20;;;18.40;58.50;;;;;;5017032;28;20033;-64
2022/04/18 06:54:00;;;;;;;3.45;0.95;;;18.30;58.40;;;;;;5017975;28;20479;-64
2022/04/18 06:59:10;;;;;;;3.53;1.10;;;18.30;58.20;;;;;;5021264;28;20540;-64
2022/04/18 07:01:35;;;;;;;3.50;1.20;;;18.30;58.30;;;;;;5014264;28;20296;-63
2022/04/18 07:04:01;;;;;;;2.80;0.95;;;18.30;58.30;;;;;;5015840;28;20080;-64
2022/04/18 07:06:27;;;;;;;3.88;1.00;;;18.30;58.30;;;;;;5018936;28;20079;-64
2022/04/18 07:08:53;;;;;;;3.30;0.95;;;18.30;58.20;;;;;;5024413;28;20026;-63
2022/04/18 07:11:18;;;;;;;3.38;1.05;;;18.30;58.30;;;;;;5016887;28;20025;-66
2022/04/18 07:13:44;;;;;;;4.63;1.10;;;18.30;58.50;;;;;;5020390;28;20509;-66
2022/04/18 07:16:10;;;;;;;3.00;0.90;;;18.40;58.40;;;;;;5020011;28;20052;-65
2022/04/18 07:18:35;;;;;;;2.28;0.90;;;18.40;58.60;;;;;;5016167;28;20544;-65
2022/04/18 07:21:02;;;;;;;5.68;1.08;;;18.40;59.20;;;;;;5015903;28;20021;-65
2022/04/18 07:23:28;;;;;;;2.63;1.10;;;18.40;59.20;;;;;;5021182;28;20037;-66
2022/04/18 07:25:55;;;;;;;2.05;0.77;;;18.40;59.20;;;;;;5024223;28;20360;-65
2022/04/18 07:28:21;;;;;;;6.13;1.20;;;18.40;59.10;;;;;;5019479;28;20552;-66
2022/04/18 07:30:47;;;;;;;3.15;0.90;;;18.50;59.10;;;;;;5017948;28;20017;-66
2022/04/18 07:33:14;;;;;;;4.43;0.90;;;18.50;59.10;;;;;;5019269;28;20038;-65
2022/04/18 07:35:40;;;;;;;8.35;1.20;;;18.50;59.10;;;;;;5019188;28;20033;-65
2022/04/18 07:40:50;;;;;;;4.20;1.10;;;18.60;59.60;;;;;;5016069;28;20505;-66
2022/04/18 07:43:16;;;;;;;5.65;1.10;;;18.60;59.60;;;;;;5024267;28;20037;-65
2022/04/18 07:45:41;;;;;;;6.32;1.02;;;18.60;59.60;;;;;;5024083;28;20109;-65
2022/04/18 07:48:08;;;;;;;3.25;0.90;;;18.60;59.60;;;;;;5018066;28;20120;-65
2022/04/18 07:53:18;;;;;;;4.13;1.23;;;18.60;59.60;;;;;;5028283;28;20562;-65
2022/04/18 07:55:44;;;;;;;7.25;1.17;;;18.70;59.70;;;;;;5018331;28;20121;-65
2022/04/18 07:58:09;;;;;;;5.45;1.30;;;18.70;59.70;;;;;;5019344;28;20057;-65
2022/04/18 08:00:35;;;;;;;3.67;0.95;;;18.70;59.70;;;;;;5016730;28;20036;-67
2022/04/18 08:03:01;;;;;;;2.35;0.90;;;18.70;59.60;;;;;;5016435;28;20044;-65
2022/04/18 08:05:26;;;;;;;3.55;1.00;;;18.70;59.60;;;;;;5020324;28;20128;-65
2022/04/18 08:07:52;;;;;;;5.07;0.93;;;18.70;59.70;;;;;;5018863;28;20033;-65
2022/04/18 08:10:18;;;;;;;4.78;1.17;;;18.70;59.60;;;;;;5021090;28;20025;-65
2022/04/18 08:12:43;;;;;;;4.95;1.10;;;18.70;59.60;;;;;;5019889;28;20022;-65
2022/04/18 08:15:09;;;;;;;5.70;1.02;;;18.80;59.70;;;;;;5019864;28;20026;-65
2022/04/18 08:17:35;;;;;;;7.13;1.40;;;18.80;59.50;;;;;;5024033;28;20037;-65
2022/04/18 08:20:00;;;;;;;3.40;1.02;;;18.80;60.50;;;;;;5013218;28;20116;-65
2022/04/18 08:22:26;;;;;;;4.55;0.93;;;18.70;59.40;;;;;;5024057;28;20057;-65
2022/04/18 08:24:52;;;;;;;5.00;1.30;;;18.80;59.40;;;;;;5018697;28;20064;-65
2022/04/18 08:27:17;;;;;;;4.97;1.08;;;18.80;59.40;;;;;;5020224;28;20022;-65
2022/04/18 08:29:43;;;;;;;5.57;1.20;;;18.80;59.30;;;;;;5022022;28;20022;-65
2022/04/18 08:32:09;;;;;;;5.13;1.20;;;18.80;59.40;;;;;;5021119;28;20406;-65
2022/04/18 08:34:35;;;;;;;5.47;1.00;;;18.80;60.40;;;;;;5018881;28;20029;-65
2022/04/18 08:37:00;;;;;;;3.30;1.10;;;18.80;58.80;;;;;;5022854;28;20034;-65
2022/04/18 08:39:27;;;;;;;5.25;1.20;;;18.70;59.10;;;;;;5017452;28;20038;-65
2022/04/18 08:41:52;;;;;;;4.90;1.27;;;18.70;59.10;;;;;;5015370;28;20034;-65
2022/04/18 08:44:19;;;;;;;3.88;1.17;;;18.70;59.00;;;;;;5049793;28;20028;-65
2022/04/18 08:46:45;;;;;;;8.70;1.42;;;18.70;59.10;;;;;;5017471;28;20057;-65
2022/04/18 08:54:41;;;;;;;6.18;1.38;;;18.80;58.70;;;;;;5020554;28;20131;-65
2022/04/18 08:57:07;;;;;;;7.88;1.35;;;18.80;58.70;;;;;;5022410;28;20068;-65
2022/04/18 08:59:32;;;;;;;6.78;1.30;;;18.80;58.70;;;;;;5025975;28;20488;-65
2022/04/18 09:01:59;;;;;;;5.13;1.13;;;18.80;58.60;;;;;;5020466;28;20077;-65
2022/04/18 09:04:25;;;;;;;5.53;1.35;;;18.80;58.50;;;;;;5018235;28;20033;-65
2022/04/18 09:06:51;;;;;;;9.88;1.63;;;18.80;58.50;;;;;;5021076;28;20037;-65
2022/04/18 09:09:28;;;;;;;5.38;1.20;;;18.70;58.40;;;;;;5052231;28;20509;-65
2022/04/18 09:11:53;;;;;;;5.32;1.13;;;18.70;58.40;;;;;;5025067;28;20030;-65
2022/04/18 09:14:19;;;;;;;7.85;1.60;;;18.70;58.30;;;;;;5016949;28;20033;-65
2022/04/18 09:16:45;;;;;;;6.47;1.55;;;18.80;58.30;;;;;;5014821;28;20045;-65
2022/04/18 09:19:16;;;;;;;7.88;1.52;;;18.70;58.20;;;;;;5026513;28;20040;-65
2022/04/18 09:21:58;;;;;;;5.40;1.35;;;18.70;58.10;;;;;;5020678;28;20025;-65
2022/04/18 09:24:34;;;;;;;4.72;1.13;;;18.70;58.00;;;;;;5020265;28;20095;-65
2022/04/18 09:27:13;;;;;;;6.72;1.58;;;18.80;57.90;;;;;;5017687;28;20037;-65
2022/04/18 09:29:40;;;;;;;4.68;1.40;;;18.80;57.90;;;;;;5016339;28;20473;-65
2022/04/18 09:32:14;;;;;;;5.82;1.30;;;18.80;57.90;;;;;;5023616;28;20413;-64
2022/04/18 09:34:41;;;;;;;7.57;1.73;;;18.80;57.70;;;;;;5022326;28;20025;-64
2022/04/18 09:37:13;;;;;;;11.27;1.98;;;18.70;57.00;;;;;;5022702;28;20040;-64
2022/04/18 09:39:53;;;;;;;7.93;1.80;;;18.60;55.10;;;;;;5022764;28;20513;-64
2022/04/18 09:42:21;;;;;;;17.48;2.30;;;18.50;55.20;;;;;;5023812;28;20112;-63
2022/04/18 09:44:47;;;;;;;9.02;1.73;;;18.50;55.10;;;;;;5022202;28;20022;-64
2022/04/18 09:47:19;;;;;;;11.18;2.20;;;18.50;54.90;;;;;;5018146;28;20068;-64
2022/04/18 09:49:45;;;;;;;10.20;1.73;;;18.50;55.20;;;;;;5017328;28;22930;-64
2022/04/18 09:52:11;;;;;;;10.98;2.10;;;18.50;54.40;;;;;;5018586;28;20441;-64
2022/04/18 09:54:49;;;;;;;12.60;1.98;;;18.50;54.30;;;;;;5015799;28;20093;-64
2022/04/18 09:57:17;;;;;;;12.00;2.10;;;18.50;54.50;;;;;;5021576;28;20034;-64
2022/04/18 09:59:42;;;;;;;9.77;2.47;;;18.50;54.40;;;;;;5021272;28;20037;-64
2022/04/18 10:02:12;;;;;;;13.35;2.42;;;18.50;54.60;;;;;;4998607;28;20075;-64
2022/04/18 10:04:37;;;;;;;15.00;2.20;;;18.40;54.00;;;;;;5022992;28;20042;-65
2022/04/18 10:07:04;;;;;;;12.13;2.22;;;18.50;54.40;;;;;;5019756;28;20519;-64
2022/04/18 10:09:29;;;;;;;16.77;2.47;;;18.50;54.50;;;;;;5016236;28;20026;-64
2022/04/18 10:11:55;;;;;;;9.80;2.20;;;18.40;54.10;;;;;;5017463;28;20391;-64
2022/04/18 10:14:21;;;;;;;12.60;2.13;;;18.40;53.80;;;;;;5019438;28;20566;-64
2022/04/18 10:16:46;;;;;;;10.05;1.98;;;18.40;53.70;;;;;;5015983;28;20280;-64
2022/04/18 10:19:29;;;;;;;11.50;2.08;;;18.40;54.10;;;;;;5043746;28;20507;-64
2022/04/18 10:22:07;;;;;;;8.48;2.10;;;18.40;53.70;;;;;;5023558;28;20180;-64
2022/04/18 10:24:39;;;;;;;11.98;2.67;;;18.40;53.90;;;;;;5022001;28;20026;-64
2022/04/18 10:27:24;;;;;;;12.07;2.38;;;18.40;54.00;;;;;;5019785;28;20752;-56
2022/04/18 10:29:54;;;;;;;11.55;2.33;;;18.40;53.00;;;;;;5018530;28;20076;-56
2022/04/18 10:32:22;;;;;;;12.23;2.42;;;18.40;53.60;;;;;;5016542;28;20517;-56
2022/04/18 10:34:51;;;;;;;10.77;2.28;;;18.40;53.30;;;;;;5020918;28;20029;-56
2022/04/18 10:37:21;;;;;;;9.05;2.33;;;18.40;52.80;;;;;;5012816;28;20781;-57
2022/04/18 10:39:59;;;;;;;12.82;2.33;;;18.40;53.50;;;;;;5023279;28;20127;-57
2022/04/18 10:42:29;;;;;;;14.98;2.20;;;18.40;52.40;;;;;;5052918;28;20029;-56
2022/04/18 10:45:10;;;;;;;10.50;2.45;;;18.40;53.40;;;;;;5027047;28;20092;-57
2022/04/18 10:47:55;;;;;;;10.52;2.22;;;18.40;53.20;;;;;;5015090;28;20045;-56
2022/04/18 10:50:21;;;;;;;11.30;2.10;;;18.40;52.80;;;;;;5023606;28;20110;-56
2022/04/18 10:53:09;;;;;;;9.25;2.53;;;18.40;53.30;;;;;;5020088;28;20044;-56
2022/04/18 10:55:36;;;;;;;12.70;2.67;;;18.40;53.10;;;;;;5020234;28;20068;-55
2022/04/18 10:58:15;;;;;;;13.30;2.60;;;18.40;52.80;;;;;;5021754;28;20025;-57
2022/04/18 11:00:50;;;;;;;11.95;2.13;;;18.40;52.80;;;;;;5022269;28;20029;-56
2022/04/18 11:03:39;;;;;;;;;;;18.40;52.80;;;;;;5021348;28;20038;-57
2022/04/18 11:06:17;;;;;;;12.35;2.28;;;18.40;52.20;;;;;;5020229;28;19963;-56
2022/04/18 11:09:06;;;;;;;11.10;2.60;;;18.50;52.40;;;;;;5019004;28;20014;-56
2022/04/18 11:11:55;;;;;;;9.95;2.38;;;18.50;52.40;;;;;;5017046;28;20048;-57
2022/04/18 11:14:20;;;;;;;11.73;2.40;;;18.50;52.90;;;;;;5025619;28;20371;-56
2022/04/18 11:16:47;;;;;;;12.95;2.47;;;18.60;53.40;;;;;;5018160;28;20040;-56
2022/04/18 11:19:25;;;;;;;9.43;2.17;;;18.60;52.90;;;;;;5022487;28;20030;-56
2022/04/18 11:21:59;;;;;;;12.27;2.60;;;18.60;53.20;;;;;;5017141;28;20042;-57
2022/04/18 11:24:44;;;;;;;13.38;2.38;;;18.60;53.40;;;;;;5019443;28;20478;-56
2022/04/18 11:27:12;;;;;;;9.70;2.40;;;18.70;52.70;;;;;;5015855;28;20038;-57
2022/04/18 11:29:38;;;;;;;11.75;2.38;;;18.70;53.00;;;;;;5015743;28;20044;-56
2022/04/18 11:32:05;;;;;;;12.63;2.50;;;18.70;53.10;;;;;;5015010;28;20021;-57
2022/04/18 11:34:31;;;;;;;11.68;2.33;;;18.80;52.90;;;;;;5018529;28;23744;-56
2022/04/18 11:37:05;;;;;;;10.43;2.40;;;18.80;53.60;;;;;;5024461;28;20032;-57
2022/04/18 11:39:48;;;;;;;13.32;2.40;;;18.80;53.40;;;;;;5021157;28;20083;-56
2022/04/18 11:42:15;;;;;;;11.93;2.22;;;18.70;53.00;;;;;;5024897;28;20103;-57
2022/04/18 11:44:41;;;;;;;10.52;2.30;;;18.80;52.50;;;;;;5023453;28;20108;-57
2022/04/18 11:47:08;;;;;;;11.50;2.17;;;18.80;53.00;;;;;;5023895;28;20157;-57
2022/04/18 11:49:34;;;;;;;12.80;2.20;;;18.80;52.20;;;;;;5017481;28;20430;-57
2022/04/18 11:51:59;;;;;;;10.52;2.22;;;18.90;52.60;;;;;;5021378;28;20160;-56
2022/04/18 11:54:25;;;;;;;10.32;2.40;;;18.90;50.00;;;;;;5012926;28;20042;-56
2022/04/18 11:56:58;;;;;;;12.77;2.22;;;18.80;50.10;;;;;;5015122;28;20484;-57
2022/04/18 11:59:28;;;;;;;11.70;2.47;;;18.80;49.50;;;;;;5015599;28;20129;-56
2022/04/18 12:07:26;;;;;;;12.65;2.38;;;18.80;48.50;;;;;;5016760;28;20632;-57
2022/04/18 12:09:52;;;;;;;12.20;2.28;;;18.80;48.00;;;;;;5025321;28;20033;-57
2022/04/18 12:12:28;;;;;;;10.88;2.45;;;18.90;48.70;;;;;;5021750;28;20032;-57
2022/04/18 12:14:54;;;;;;;11.32;2.50;;;19.00;48.50;;;;;;5024601;28;20612;-57
2022/04/18 12:17:20;;;;;;;10.52;2.40;;;19.10;49.60;;;;;;5019412;28;20033;-57
2022/04/18 12:19:46;;;;;;;15.38;2.67;;;19.10;49.10;;;;;;5012903;28;20036;-60
2022/04/18 12:22:24;;;;;;;9.70;2.25;;;19.10;49.10;;;;;;5024335;28;20022;-60
2022/04/18 12:24:50;;;;;;;10.48;2.40;;;19.10;49.20;;;;;;5018628;28;20049;-60
2022/04/18 12:27:16;;;;;;;13.32;2.78;;;19.20;49.30;;;;;;5021151;28;20117;-60
2022/04/18 12:29:45;;;;;;;11.00;2.45;;;19.20;48.50;;;;;;5020101;28;20030;-60
2022/04/18 12:32:26;;;;;;;14.50;2.30;;;19.20;48.50;;;;;;5021511;28;20314;-60
2022/04/18 12:34:53;;;;;;;15.65;2.70;;;19.20;48.90;;;;;;5017811;28;20052;-60
2022/04/18 12:37:19;;;;;;;10.27;2.75;;;19.20;48.70;;;;;;5017606;28;20091;-60
2022/04/18 12:39:45;;;;;;;13.07;2.55;;;19.50;49.90;;;;;;5023225;28;20041;-60
2022/04/18 12:42:11;;;;;;;13.15;2.72;;;19.60;49.40;;;;;;5015316;28;20018;-60
2022/04/18 12:44:39;;;;;;;10.32;2.30;;;19.70;49.30;;;;;;5020668;28;20037;-60
2022/04/18 12:47:20;;;;;;;11.30;2.67;;;19.80;49.20;;;;;;5019994;28;20073;-60
2022/04/18 12:50:10;;;;;;;13.45;2.55;;;19.90;49.50;;;;;;5017222;28;20317;-60
2022/04/18 12:52:56;;;;;;;8.98;2.63;;;20.00;49.60;;;;;;5017726;28;20665;-59
2022/04/18 12:55:26;;;;;;;11.88;2.25;;;20.00;49.70;;;;;;5015078;28;20097;-60
2022/04/18 12:57:52;;;;;;;9.90;2.00;;;20.00;49.70;;;;;;5023318;28;20052;-60
2022/04/18 13:00:18;;;;;;;9.15;2.20;;;19.90;49.60;;;;;;5013624;28;20029;-59
2022/04/18 13:02:59;;;;;;;9.82;2.17;;;19.90;49.60;;;;;;5015592;28;20058;-59
2022/04/18 13:05:29;;;;;;;11.77;2.33;;;19.90;49.70;;;;;;5011677;28;20038;-60
2022/04/18 13:08:05;;;;;;;8.40;2.10;;;19.90;50.00;;;;;;5020265;28;20461;-59
2022/04/18 13:10:34;;;;;;;7.88;2.00;;;19.80;50.10;;;;;;5014099;28;20049;-60
2022/04/18 13:13:04;;;;;;;9.05;2.10;;;19.90;50.20;;;;;;5021483;28;20160;-60
2022/04/18 13:15:30;;;;;;;6.65;2.15;;;19.80;50.10;;;;;;5019069;28;20339;-60
2022/04/18 13:17:58;;;;;;;9.18;2.05;;;19.80;50.40;;;;;;5011939;28;20125;-60